Red Lake, Texas
Current Conditions -  °F | °C
As of 1:55 AM on Sunday 26 Oct 2014 (Local Time) from KPSN Reporting Station
Clear Clear  
Wind Chill: 66°   Ceiling: Unl
Heat Index: 66°   Visibility: 10mi
Dew Point: 62°   Wind: 3mph
Humidity: 85%   Direction: 140°SE
Pressure: 30.07"   Gusts: NA
Location:  31.5818°N, 95.8921°W
Report Text: KPSN 260655Z AUTO 14003KT 10SM CLR 18/16 A3007 RMK AO2 T01900165
Loading
Personal Weather Stations






























Interactive Weather Map New forecast layout! Learn more

10-Day Weather Forecast

Advertisements
Track Severe Weather on mobile